Time;durP1;ratioP1;P1;durP2;ratioP2;P2;SDS_P1;SDS_P2;PMS_P1;PMS_P2;Temp;Humidity;BMP_temperature;BMP_pressure;BME280_temperature;BME280_humidity;BME280_pressure;Samples;Min_cycle;Max_cycle;Signal;HPM_P1;HPM_P2
2024/03/12 00:00:00;;;;;;;8.00;7.30;;;;;;;;;;5077730;28;20472;-69
2024/03/12 00:02:28;;;;;;;7.47;6.77;;;;;;;;;;5078331;28;20480;-69
2024/03/12 00:04:55;;;;;;;7.57;6.87;;;;;;;;;;5079499;28;20467;-69
2024/03/12 00:07:22;;;;;;;8.47;7.63;;;;;;;;;;5083875;28;20837;-69
2024/03/12 00:09:48;;;;;;;8.43;7.73;;;;;;;;;;5083448;28;20455;-70
2024/03/12 00:12:15;;;;;;;9.77;8.40;;;;;;;;;;5075441;28;20464;-69
2024/03/12 00:14:42;;;;;;;9.80;8.23;;;;;;;;;;5075035;28;20486;-69
2024/03/12 00:17:08;;;;;;;9.00;7.80;;;;;;;;;;5077691;28;20480;-69
2024/03/12 00:19:36;;;;;;;8.47;7.73;;;;;;;;;;5078970;28;20450;-69
2024/03/12 00:22:03;;;;;;;9.43;8.63;;;;;;;;;;5077116;28;20815;-69
2024/03/12 00:24:29;;;;;;;9.20;8.40;;;;;;;;;;5090682;28;20443;-69
2024/03/12 00:26:56;;;;;;;8.93;8.13;;;;;;;;;;5076977;28;20519;-70
2024/03/12 00:29:23;;;;;;;9.63;8.83;;;;;;;;;;5079740;28;20456;-69
2024/03/12 00:31:51;;;;;;;8.60;7.90;;;;;;;;;;5072838;28;20487;-69
2024/03/12 00:34:17;;;;;;;9.13;8.33;;;;;;;;;;5080263;28;20520;-69
2024/03/12 00:36:45;;;;;;;8.93;8.10;;;;;;;;;;5068236;28;20531;-70
2024/03/12 00:39:12;;;;;;;9.70;8.80;;;;;;;;;;5075451;28;20448;-69
2024/03/12 00:41:38;;;;;;;10.30;8.20;;;;;;;;;;5078231;28;20448;-68
2024/03/12 00:44:05;;;;;;;9.10;8.40;;;;;;;;;;5080424;28;20491;-68
2024/03/12 00:46:32;;;;;;;9.63;8.83;;;;;;;;;;5084867;28;20482;-67
2024/03/12 00:48:59;;;;;;;8.97;8.13;;;;;;;;;;5085921;28;20482;-68
2024/03/12 00:51:26;;;;;;;8.90;8.10;;;;;;;;;;5086986;28;20466;-68
2024/03/12 00:53:54;;;;;;;8.83;8.00;;;;;;;;;;5083674;28;20511;-67
2024/03/12 00:56:21;;;;;;;10.47;9.50;;;;;;;;;;5088767;28;20482;-67
2024/03/12 00:58:47;;;;;;;10.00;9.20;;;;;;;;;;5078646;28;20821;-67
2024/03/12 01:01:14;;;;;;;11.07;10.07;;;;;;;;;;5080223;28;20467;-67
2024/03/12 01:03:42;;;;;;;10.03;9.20;;;;;;;;;;5080278;28;20462;-67
2024/03/12 01:06:11;;;;;;;11.80;9.70;;;;;;;;;;5085034;28;20518;-67
2024/03/12 01:08:37;;;;;;;11.63;9.57;;;;;;;;;;5078831;28;20583;-67
2024/03/12 01:11:06;;;;;;;11.07;9.97;;;;;;;;;;5079889;28;20515;-67
2024/03/12 01:13:33;;;;;;;11.90;10.97;;;;;;;;;;5080193;28;20538;-67
2024/03/12 01:15:59;;;;;;;10.77;9.83;;;;;;;;;;5079796;28;20863;-67
2024/03/12 01:18:26;;;;;;;11.40;10.40;;;;;;;;;;5080562;28;20479;-67
2024/03/12 01:20:52;;;;;;;10.70;9.80;;;;;;;;;;5079176;28;20479;-67
2024/03/12 01:23:19;;;;;;;10.87;9.87;;;;;;;;;;5071808;28;20463;-68
2024/03/12 01:25:46;;;;;;;9.60;8.80;;;;;;;;;;5079428;28;21063;-67
2024/03/12 01:28:14;;;;;;;10.60;9.30;;;;;;;;;;5077383;28;20515;-67
2024/03/12 01:30:40;;;;;;;10.83;9.83;;;;;;;;;;5078383;28;20504;-67
2024/03/12 01:33:07;;;;;;;10.43;9.43;;;;;;;;;;5080445;28;20960;-67
2024/03/12 01:35:37;;;;;;;11.20;10.10;;;;;;;;;;5079741;28;20524;-66
2024/03/12 01:38:04;;;;;;;10.53;9.53;;;;;;;;;;5080879;28;20547;-67
2024/03/12 01:40:30;;;;;;;11.17;10.13;;;;;;;;;;5077485;28;20483;-67
2024/03/12 01:43:01;;;;;;;11.13;9.87;;;;;;;;;;5078839;28;20515;-67
2024/03/12 01:45:29;;;;;;;10.90;9.90;;;;;;;;;;5073298;28;20931;-67
2024/03/12 01:47:56;;;;;;;13.07;11.67;;;;;;;;;;5080435;28;20452;-67
2024/03/12 01:50:24;;;;;;;11.53;10.53;;;;;;;;;;5083148;28;20440;-67
2024/03/12 01:52:50;;;;;;;11.67;10.67;;;;;;;;;;5079244;28;20471;-67
2024/03/12 01:55:18;;;;;;;11.40;10.30;;;;;;;;;;5081117;28;20454;-67
2024/03/12 01:57:45;;;;;;;11.20;10.20;;;;;;;;;;5078096;28;20495;-66
2024/03/12 02:00:13;;;;;;;11.37;10.33;;;;;;;;;;5073297;28;20456;-67
2024/03/12 02:02:41;;;;;;;12.37;11.10;;;;;;;;;;5078555;28;20456;-67
2024/03/12 02:05:10;;;;;;;11.77;10.57;;;;;;;;;;5069937;28;20453;-67
2024/03/12 02:07:36;;;;;;;10.50;9.60;;;;;;;;;;5076039;28;20448;-67
2024/03/12 02:10:04;;;;;;;11.53;10.43;;;;;;;;;;5077441;28;20472;-68
2024/03/12 02:12:31;;;;;;;11.43;10.43;;;;;;;;;;5078150;28;20491;-68
2024/03/12 02:15:02;;;;;;;11.40;10.40;;;;;;;;;;5073330;28;20547;-68
2024/03/12 02:17:29;;;;;;;11.17;10.07;;;;;;;;;;5079085;28;20448;-67
2024/03/12 02:19:57;;;;;;;11.03;10.03;;;;;;;;;;5078255;28;20964;-68
2024/03/12 02:22:23;;;;;;;11.60;10.50;;;;;;;;;;5078857;28;20452;-67
2024/03/12 02:24:52;;;;;;;11.40;10.40;;;;;;;;;;5078115;28;20467;-67
2024/03/12 02:27:18;;;;;;;11.37;10.37;;;;;;;;;;5073102;28;20448;-67
2024/03/12 02:29:45;;;;;;;10.83;9.93;;;;;;;;;;5078861;28;20502;-67
2024/03/12 02:32:11;;;;;;;11.63;10.43;;;;;;;;;;5077012;28;20549;-67
2024/03/12 02:34:38;;;;;;;10.90;9.90;;;;;;;;;;5079226;28;20507;-68
2024/03/12 02:37:05;;;;;;;11.00;9.80;;;;;;;;;;5077315;28;20503;-67
2024/03/12 02:39:31;;;;;;;11.47;10.37;;;;;;;;;;5077006;28;20444;-67
2024/03/12 02:42:00;;;;;;;10.60;9.60;;;;;;;;;;5078465;28;20458;-67
2024/03/12 02:44:26;;;;;;;9.90;9.10;;;;;;;;;;5078563;28;20547;-67
2024/03/12 02:46:54;;;;;;;10.90;10.00;;;;;;;;;;5076394;28;20521;-67
2024/03/12 02:49:22;;;;;;;10.10;9.17;;;;;;;;;;5077511;28;20456;-68
2024/03/12 02:51:49;;;;;;;12.10;11.00;;;;;;;;;;5079082;28;20479;-67
2024/03/12 02:54:16;;;;;;;9.90;9.10;;;;;;;;;;5086139;28;20510;-67
2024/03/12 02:56:42;;;;;;;12.90;11.60;;;;;;;;;;5074553;28;20551;-67
2024/03/12 02:59:11;;;;;;;11.83;10.73;;;;;;;;;;5069924;28;20595;-67
2024/03/12 03:01:38;;;;;;;12.67;11.43;;;;;;;;;;5062901;28;20516;-67
2024/03/12 03:04:05;;;;;;;13.73;12.23;;;;;;;;;;5073052;28;20490;-67
2024/03/12 03:06:31;;;;;;;13.33;11.97;;;;;;;;;;5068955;28;20522;-67
2024/03/12 03:08:58;;;;;;;15.10;13.20;;;;;;;;;;5063557;28;20484;-67
2024/03/12 03:11:24;;;;;;;12.03;10.83;;;;;;;;;;5068164;28;20518;-67
2024/03/12 03:13:51;;;;;;;13.30;11.90;;;;;;;;;;5064210;28;20481;-67
2024/03/12 03:16:20;;;;;;;14.10;12.70;;;;;;;;;;5067349;28;20539;-67
2024/03/12 03:18:46;;;;;;;15.33;13.60;;;;;;;;;;5068008;28;20486;-67
2024/03/12 03:21:13;;;;;;;15.30;13.80;;;;;;;;;;5068963;28;20473;-67
2024/03/12 03:23:41;;;;;;;16.27;13.90;;;;;;;;;;5058553;28;20472;-66
2024/03/12 03:26:07;;;;;;;22.03;18.67;;;;;;;;;;5063860;28;20485;-66
2024/03/12 03:28:34;;;;;;;20.03;16.60;;;;;;;;;;5066491;28;20512;-66
2024/03/12 03:31:00;;;;;;;23.30;17.57;;;;;;;;;;5064090;28;20525;-66
2024/03/12 03:33:28;;;;;;;22.50;17.50;;;;;;;;;;5067472;28;20520;-66
2024/03/12 03:35:54;;;;;;;21.50;17.73;;;;;;;;;;5058965;28;20889;-66
2024/03/12 03:38:21;;;;;;;31.17;22.40;;;;;;;;;;5065350;28;20536;-66
2024/03/12 03:40:47;;;;;;;44.00;25.00;;;;;;;;;;5063003;28;20486;-67
2024/03/12 03:43:14;;;;;;;42.60;27.90;;;;;;;;;;5057300;28;20468;-66
2024/03/12 03:45:41;;;;;;;44.57;27.83;;;;;;;;;;5069292;28;20567;-66
2024/03/12 03:48:07;;;;;;;36.80;28.87;;;;;;;;;;5061702;28;20519;-66
2024/03/12 03:50:35;;;;;;;46.50;29.57;;;;;;;;;;5072247;28;20508;-66
2024/03/12 03:53:02;;;;;;;38.73;27.10;;;;;;;;;;5063401;28;20516;-67
2024/03/12 03:55:28;;;;;;;39.27;28.23;;;;;;;;;;5064669;28;20448;-66
2024/03/12 03:57:55;;;;;;;43.03;28.60;;;;;;;;;;5069746;28;20539;-67
2024/03/12 04:00:28;;;;;;;37.77;27.30;;;;;;;;;;5077292;28;20481;-67
2024/03/12 04:02:56;;;;;;;38.37;26.60;;;;;;;;;;5080804;28;20459;-67
2024/03/12 04:05:23;;;;;;;40.57;29.20;;;;;;;;;;5076810;28;20448;-67
2024/03/12 04:07:50;;;;;;;38.93;27.17;;;;;;;;;;5077300;28;20721;-67
2024/03/12 04:10:17;;;;;;;39.33;27.33;;;;;;;;;;5074597;28;20492;-67
2024/03/12 04:12:45;;;;;;;39.37;27.60;;;;;;;;;;5074724;28;20545;-67
2024/03/12 04:15:12;;;;;;;37.40;26.70;;;;;;;;;;5076092;28;20479;-67
2024/03/12 04:17:38;;;;;;;41.97;29.90;;;;;;;;;;5077706;28;20487;-67
2024/03/12 04:20:10;;;;;;;42.93;29.90;;;;;;;;;;5075740;28;20518;-68
2024/03/12 04:22:37;;;;;;;43.17;30.70;;;;;;;;;;5076212;28;20451;-68
2024/03/12 04:25:05;;;;;;;41.53;29.50;;;;;;;;;;5076850;28;20454;-68
2024/03/12 04:27:31;;;;;;;40.97;29.50;;;;;;;;;;5077491;28;20448;-68
2024/03/12 04:29:57;;;;;;;41.43;28.53;;;;;;;;;;5076702;28;20476;-68
2024/03/12 04:32:27;;;;;;;42.50;29.70;;;;;;;;;;5067793;28;20555;-67
2024/03/12 04:34:53;;;;;;;40.43;29.77;;;;;;;;;;5076564;28;20456;-68
2024/03/12 04:37:20;;;;;;;44.93;30.50;;;;;;;;;;5076990;28;20511;-68
2024/03/12 04:39:46;;;;;;;41.50;29.70;;;;;;;;;;5066866;28;20495;-68
2024/03/12 04:42:14;;;;;;;39.27;30.07;;;;;;;;;;5078456;28;20440;-68
2024/03/12 04:44:42;;;;;;;38.53;27.33;;;;;;;;;;5075666;28;20571;-68
2024/03/12 04:47:09;;;;;;;41.70;29.20;;;;;;;;;;5071281;28;20486;-67
2024/03/12 04:49:37;;;;;;;38.87;28.90;;;;;;;;;;5075800;28;20455;-67
2024/03/12 04:52:04;;;;;;;38.97;28.50;;;;;;;;;;5074143;28;20482;-68
2024/03/12 04:54:30;;;;;;;43.23;29.33;;;;;;;;;;5071477;28;20487;-68
2024/03/12 04:56:57;;;;;;;45.40;29.90;;;;;;;;;;5071780;28;20506;-68
2024/03/12 04:59:24;;;;;;;41.20;29.17;;;;;;;;;;5077187;28;20459;-68
2024/03/12 05:01:52;;;;;;;44.47;31.33;;;;;;;;;;5077290;28;20442;-68
2024/03/12 05:04:19;;;;;;;42.33;30.70;;;;;;;;;;5076663;28;20922;-68
2024/03/12 05:06:45;;;;;;;42.30;30.03;;;;;;;;;;5074126;28;20448;-68
2024/03/12 05:09:17;;;;;;;43.93;30.10;;;;;;;;;;5077403;28;20530;-68
2024/03/12 05:11:44;;;;;;;39.37;29.57;;;;;;;;;;5071395;28;21101;-69
2024/03/12 05:14:10;;;;;;;40.27;29.13;;;;;;;;;;5069812;28;20548;-69
2024/03/12 05:16:38;;;;;;;43.40;29.00;;;;;;;;;;5077540;28;20472;-68
2024/03/12 05:19:04;;;;;;;41.30;28.40;;;;;;;;;;5070433;28;20947;-69
2024/03/12 05:21:31;;;;;;;41.23;29.40;;;;;;;;;;5071550;28;20827;-69
2024/03/12 05:23:58;;;;;;;41.57;29.20;;;;;;;;;;5072668;28;20506;-69
2024/03/12 05:26:28;;;;;;;48.53;29.43;;;;;;;;;;5075149;28;20440;-68
2024/03/12 05:28:57;;;;;;;43.50;29.03;;;;;;;;;;5062162;28;20468;-68
2024/03/12 05:31:29;;;;;;;40.73;28.37;;;;;;;;;;5076158;28;20451;-68
2024/03/12 05:33:59;;;;;;;37.60;27.77;;;;;;;;;;5073685;28;20464;-69
2024/03/12 05:36:25;;;;;;;40.00;26.83;;;;;;;;;;5079471;28;20436;-68
2024/03/12 05:39:03;;;;;;;38.83;26.67;;;;;;;;;;5082127;28;20443;-68
2024/03/12 05:41:40;;;;;;;40.07;24.70;;;;;;;;;;5088012;28;20290;-68
2024/03/12 05:49:32;;;;;;;43.87;25.33;;;;;;;;;;5066548;28;20441;-68
2024/03/12 05:51:59;;;;;;;41.07;26.70;;;;;;;;;;5077694;28;20486;-68
2024/03/12 05:54:25;;;;;;;42.23;26.70;;;;;;;;;;5080620;28;20528;-68
2024/03/12 05:56:52;;;;;;;37.43;24.33;;;;;;;;;;5081042;28;20519;-69
2024/03/12 05:59:21;;;;;;;40.43;24.50;;;;;;;;;;5079614;28;20551;-67
2024/03/12 06:01:47;;;;;;;42.73;27.17;;;;;;;;;;5078656;28;20466;-68
2024/03/12 06:04:14;;;;;;;42.47;26.17;;;;;;;;;;5079246;28;20460;-71
2024/03/12 06:06:42;;;;;;;44.13;26.77;;;;;;;;;;5067430;28;20468;-68
2024/03/12 06:09:10;;;;;;;39.83;25.80;;;;;;;;;;5079240;28;20471;-67
2024/03/12 06:11:36;;;;;;;44.73;28.63;;;;;;;;;;5078416;28;20455;-67
2024/03/12 06:14:07;;;;;;;45.53;29.60;;;;;;;;;;5079377;28;20579;-68
2024/03/12 06:16:33;;;;;;;49.60;29.50;;;;;;;;;;5079427;28;20561;-68
2024/03/12 06:18:59;;;;;;;42.80;29.57;;;;;;;;;;5079626;28;20538;-68
2024/03/12 06:21:26;;;;;;;40.37;27.13;;;;;;;;;;5080304;28;20451;-68
2024/03/12 06:23:54;;;;;;;48.93;30.67;;;;;;;;;;5079736;28;20475;-68
2024/03/12 06:26:21;;;;;;;41.63;26.77;;;;;;;;;;5078131;28;20451;-68
2024/03/12 06:28:47;;;;;;;44.60;26.90;;;;;;;;;;5075459;28;20475;-68
2024/03/12 06:31:14;;;;;;;44.57;26.00;;;;;;;;;;5079243;28;20805;-69
2024/03/12 06:33:42;;;;;;;43.77;27.43;;;;;;;;;;5078820;28;20563;-68
2024/03/12 06:36:09;;;;;;;40.30;25.23;;;;;;;;;;5074283;28;20484;-72
2024/03/12 06:38:35;;;;;;;37.40;25.00;;;;;;;;;;5074393;28;20476;-71
2024/03/12 06:41:07;;;;;;;35.57;24.53;;;;;;;;;;5078884;28;20478;-71
2024/03/12 06:43:33;;;;;;;38.77;24.73;;;;;;;;;;5080072;28;20460;-73
2024/03/12 06:46:00;;;;;;;42.37;26.20;;;;;;;;;;5071668;28;20452;-73
2024/03/12 06:48:28;;;;;;;37.10;24.40;;;;;;;;;;5078482;28;20476;-73
2024/03/12 06:50:55;;;;;;;36.90;25.93;;;;;;;;;;5078955;28;20456;-73
2024/03/12 06:53:25;;;;;;;38.30;26.50;;;;;;;;;;5080697;28;21116;-73
2024/03/12 06:55:52;;;;;;;41.20;26.97;;;;;;;;;;5078317;28;20448;-74
2024/03/12 06:58:21;;;;;;;41.73;27.50;;;;;;;;;;5078009;28;21363;-74
2024/03/12 07:00:49;;;;;;;40.63;26.70;;;;;;;;;;5078166;28;20460;-73
2024/03/12 07:03:18;;;;;;;47.47;27.27;;;;;;;;;;5071379;28;20456;-76
2024/03/12 07:05:46;;;;;;;51.30;30.43;;;;;;;;;;5073709;28;20998;-74
2024/03/12 07:08:14;;;;;;;56.13;32.20;;;;;;;;;;5080856;28;20952;-73
2024/03/12 07:10:41;;;;;;;55.07;33.30;;;;;;;;;;5081322;28;20455;-76
2024/03/12 07:13:08;;;;;;;56.07;34.13;;;;;;;;;;5073732;28;20490;-75
2024/03/12 07:15:38;;;;;;;58.40;35.40;;;;;;;;;;5070179;28;20450;-75
2024/03/12 07:18:05;;;;;;;58.40;33.67;;;;;;;;;;5078232;28;20460;-76
2024/03/12 07:20:33;;;;;;;62.10;34.70;;;;;;;;;;5076743;28;20440;-75
2024/03/12 07:23:00;;;;;;;60.27;36.57;;;;;;;;;;5075723;28;20495;-75
2024/03/12 07:25:27;;;;;;;60.37;36.57;;;;;;;;;;5069662;28;20455;-74
2024/03/12 07:27:54;;;;;;;62.67;38.43;;;;;;;;;;5076621;28;20452;-75
2024/03/12 07:30:22;;;;;;;64.53;35.83;;;;;;;;;;5073283;28;20452;-72
2024/03/12 07:32:49;;;;;;;64.50;35.70;;;;;;;;;;5079457;28;20498;-73
2024/03/12 07:35:17;;;;;;;62.80;37.70;;;;;;;;;;5078029;28;20478;-70
2024/03/12 07:37:45;;;;;;;61.10;35.50;;;;;;;;;;5078863;28;20440;-71
2024/03/12 07:40:15;;;;;;;64.37;37.53;;;;;;;;;;5080157;28;20987;-71
2024/03/12 07:42:42;;;;;;;51.83;33.53;;;;;;;;;;5078922;28;20467;-74
2024/03/12 07:45:09;;;;;;;59.57;38.00;;;;;;;;;;5085613;28;20444;-74
2024/03/12 07:47:36;;;;;;;52.00;33.70;;;;;;;;;;5077768;28;20531;-76
2024/03/12 07:50:05;;;;;;;62.40;36.50;;;;;;;;;;5085487;28;20451;-71
2024/03/12 07:52:31;;;;;;;57.60;34.30;;;;;;;;;;5077910;28;20511;-70
2024/03/12 07:54:58;;;;;;;54.33;33.60;;;;;;;;;;5075239;28;20908;-74
2024/03/12 07:57:24;;;;;;;48.07;31.30;;;;;;;;;;5076150;28;20494;-71
2024/03/12 07:59:52;;;;;;;49.80;32.27;;;;;;;;;;5075977;28;21198;-74
2024/03/12 08:02:21;;;;;;;48.60;30.30;;;;;;;;;;5079646;28;20451;-71
2024/03/12 08:04:48;;;;;;;51.60;32.10;;;;;;;;;;5067508;28;20707;-75
2024/03/12 08:07:15;;;;;;;46.40;30.30;;;;;;;;;;5079514;28;20475;-75
2024/03/12 08:09:42;;;;;;;44.03;30.00;;;;;;;;;;5079168;28;20478;-73
2024/03/12 08:12:11;;;;;;;43.73;29.83;;;;;;;;;;5077545;28;20547;-75
2024/03/12 08:14:37;;;;;;;44.30;30.67;;;;;;;;;;5078764;28;20483;-73
2024/03/12 08:17:04;;;;;;;49.33;28.60;;;;;;;;;;5082334;28;20444;-79
2024/03/12 08:19:31;;;;;;;44.23;26.93;;;;;;;;;;5077591;28;20462;-68
2024/03/12 08:21:58;;;;;;;43.10;30.50;;;;;;;;;;5073824;28;21045;-69
2024/03/12 08:24:29;;;;;;;41.50;27.20;;;;;;;;;;5075846;28;20448;-70
2024/03/12 08:26:56;;;;;;;35.33;25.57;;;;;;;;;;5078112;28;20528;-71
2024/03/12 08:29:23;;;;;;;33.43;25.73;;;;;;;;;;5077034;28;20475;-71
2024/03/12 08:31:49;;;;;;;35.73;26.97;;;;;;;;;;5077725;28;20456;-72
2024/03/12 08:34:16;;;;;;;37.90;26.67;;;;;;;;;;5080028;28;20498;-69
2024/03/12 08:36:42;;;;;;;37.67;26.30;;;;;;;;;;5075118;28;20455;-74
2024/03/12 08:39:11;;;;;;;40.00;27.50;;;;;;;;;;5077106;28;20499;-70
2024/03/12 08:41:39;;;;;;;41.33;27.13;;;;;;;;;;5070907;28;20455;-78
2024/03/12 08:44:06;;;;;;;42.20;27.17;;;;;;;;;;5078474;28;20455;-73
2024/03/12 08:46:32;;;;;;;42.93;26.33;;;;;;;;;;5071269;28;20526;-75
2024/03/12 08:48:59;;;;;;;37.87;26.80;;;;;;;;;;5079055;28;20550;-76
2024/03/12 08:51:25;;;;;;;37.83;26.63;;;;;;;;;;5078491;28;20472;-77
2024/03/12 08:53:52;;;;;;;38.77;24.87;;;;;;;;;;5078526;28;20487;-76
2024/03/12 08:56:19;;;;;;;34.90;26.10;;;;;;;;;;5079716;28;20519;-76
2024/03/12 08:58:49;;;;;;;36.90;25.53;;;;;;;;;;5077382;28;21068;-76
2024/03/12 09:01:17;;;;;;;34.47;24.73;;;;;;;;;;5060437;28;20440;-73
2024/03/12 09:03:44;;;;;;;36.90;25.00;;;;;;;;;;5077192;28;20460;-71
2024/03/12 09:06:11;;;;;;;40.67;24.17;;;;;;;;;;5071512;28;20448;-72
2024/03/12 09:08:39;;;;;;;31.17;23.00;;;;;;;;;;5081210;28;20522;-70
2024/03/12 09:11:05;;;;;;;37.80;25.33;;;;;;;;;;5079618;28;20442;-71
2024/03/12 09:13:32;;;;;;;34.90;23.67;;;;;;;;;;5081072;28;20483;-75
2024/03/12 09:16:01;;;;;;;30.53;22.73;;;;;;;;;;5081862;28;20439;-72
2024/03/12 09:18:28;;;;;;;32.20;24.47;;;;;;;;;;5082108;28;20470;-73
2024/03/12 09:20:54;;;;;;;37.40;25.43;;;;;;;;;;5076922;28;20491;-71
2024/03/12 09:23:22;;;;;;;37.17;23.80;;;;;;;;;;5079531;28;20523;-69
2024/03/12 09:25:48;;;;;;;35.10;24.47;;;;;;;;;;5079908;28;20436;-74
2024/03/12 09:28:16;;;;;;;29.40;21.80;;;;;;;;;;5078014;28;20506;-75
2024/03/12 09:30:42;;;;;;;31.87;23.30;;;;;;;;;;5081973;28;20495;-72
2024/03/12 09:33:10;;;;;;;30.20;22.60;;;;;;;;;;5080636;28;20491;-70
2024/03/12 09:35:38;;;;;;;29.67;20.77;;;;;;;;;;5072271;28;20486;-72
2024/03/12 09:38:04;;;;;;;26.60;19.90;;;;;;;;;;5077541;28;20539;-71
2024/03/12 09:40:31;;;;;;;24.27;18.37;;;;;;;;;;5085102;28;20458;-71
2024/03/12 09:43:00;;;;;;;24.00;18.70;;;;;;;;;;5080926;28;20478;-75
2024/03/12 09:45:27;;;;;;;24.30;19.83;;;;;;;;;;5081469;28;21098;-70
2024/03/12 09:47:53;;;;;;;22.10;17.77;;;;;;;;;;5084741;28;20478;-70
2024/03/12 09:50:23;;;;;;;26.50;20.20;;;;;;;;;;5080822;28;20492;-69
2024/03/12 09:52:50;;;;;;;24.43;18.27;;;;;;;;;;5081006;28;20467;-78
2024/03/12 09:55:18;;;;;;;20.83;16.93;;;;;;;;;;5079451;28;20472;-76
2024/03/12 09:57:47;;;;;;;24.93;18.30;;;;;;;;;;5081137;28;20550;-77
2024/03/12 10:00:18;;;;;;;23.07;17.50;;;;;;;;;;5080906;28;20479;-78
2024/03/12 10:02:46;;;;;;;20.70;16.87;;;;;;;;;;5077664;28;20462;-73
2024/03/12 10:05:14;;;;;;;19.07;16.27;;;;;;;;;;5080570;28;20479;-72
2024/03/12 10:07:55;;;;;;;22.77;16.13;;;;;;;;;;5074386;28;20452;-72
2024/03/12 10:10:25;;;;;;;18.50;16.17;;;;;;;;;;5077733;28;20482;-73
2024/03/12 10:12:52;;;;;;;22.60;16.93;;;;;;;;;;5080711;28;21330;-74
2024/03/12 10:15:19;;;;;;;20.93;15.23;;;;;;;;;;5080414;28;21319;-67
2024/03/12 10:17:57;;;;;;;18.13;14.67;;;;;;;;;;5079237;28;20538;-67
2024/03/12 10:20:24;;;;;;;20.67;15.40;;;;;;;;;;5078484;28;21344;-70
2024/03/12 10:23:03;;;;;;;23.30;15.10;;;;;;;;;;5078086;28;20459;-74
2024/03/12 10:25:31;;;;;;;20.70;16.30;;;;;;;;;;5075288;28;20470;-70
2024/03/12 10:27:58;;;;;;;19.80;16.53;;;;;;;;;;5074848;28;20472;-76
2024/03/12 10:30:24;;;;;;;19.90;15.27;;;;;;;;;;5070761;28;20446;-69
2024/03/12 10:32:51;;;;;;;15.67;13.97;;;;;;;;;;5077565;28;20749;-69
2024/03/12 10:35:19;;;;;;;16.10;14.37;;;;;;;;;;5080669;28;20551;-76
2024/03/12 10:37:49;;;;;;;18.60;14.03;;;;;;;;;;5080161;28;20455;-70
2024/03/12 10:40:16;;;;;;;18.70;13.80;;;;;;;;;;5079367;28;20506;-70
2024/03/12 10:42:52;;;;;;;15.70;13.40;;;;;;;;;;5079947;28;20533;-72
2024/03/12 10:45:19;;;;;;;15.67;13.97;;;;;;;;;;5077834;28;20474;-73
2024/03/12 10:47:46;;;;;;;16.03;12.73;;;;;;;;;;5077139;28;20527;-69
2024/03/12 10:50:12;;;;;;;15.17;13.13;;;;;;;;;;5078918;28;21040;-69
2024/03/12 10:52:38;;;;;;;16.83;14.23;;;;;;;;;;5079889;28;20463;-72
2024/03/12 10:55:06;;;;;;;17.47;13.97;;;;;;;;;;5080461;28;20519;-75
2024/03/12 10:57:34;;;;;;;17.80;14.93;;;;;;;;;;5080701;28;20491;-70
2024/03/12 11:00:07;;;;;;;16.57;13.90;;;;;;;;;;5079553;28;20926;-68
2024/03/12 11:02:34;;;;;;;18.60;14.00;;;;;;;;;;5079804;28;20452;-69
2024/03/12 11:05:03;;;;;;;19.17;13.60;;;;;;;;;;5071124;28;20918;-70
2024/03/12 11:07:31;;;;;;;20.10;15.27;;;;;;;;;;5078667;28;20452;-71
2024/03/12 11:09:59;;;;;;;18.47;14.57;;;;;;;;;;5070817;28;20455;-71
2024/03/12 11:12:25;;;;;;;16.33;14.00;;;;;;;;;;5079845;28;20462;-75
2024/03/12 11:14:54;;;;;;;19.87;14.60;;;;;;;;;;5073682;28;20487;-76
2024/03/12 11:17:31;;;;;;;22.40;14.27;;;;;;;;;;5079176;28;20467;-73
2024/03/12 11:19:58;;;;;;;16.67;14.57;;;;;;;;;;5079058;28;20456;-74
2024/03/12 11:22:25;;;;;;;17.10;14.07;;;;;;;;;;5078978;28;20455;-75
2024/03/12 11:24:52;;;;;;;20.27;14.97;;;;;;;;;;5078908;28;20456;-75
2024/03/12 11:27:19;;;;;;;18.63;13.80;;;;;;;;;;5078707;28;20456;-74
2024/03/12 11:30:04;;;;;;;21.50;14.30;;;;;;;;;;5069212;28;20464;-70
2024/03/12 11:32:34;;;;;;;18.97;14.63;;;;;;;;;;5078393;28;20454;-73
2024/03/12 11:35:03;;;;;;;16.00;13.70;;;;;;;;;;5077006;28;20488;-68
2024/03/12 11:37:29;;;;;;;19.93;15.40;;;;;;;;;;5074636;28;20505;-76
2024/03/12 11:40:15;;;;;;;17.77;16.00;;;;;;;;;;5076952;28;20448;-74
2024/03/12 11:42:41;;;;;;;19.27;17.10;;;;;;;;;;5078686;28;20455;-75
2024/03/12 11:45:28;;;;;;;22.97;18.07;;;;;;;;;;5078214;28;20563;-74
2024/03/12 11:47:56;;;;;;;24.20;19.83;;;;;;;;;;5076946;28;20475;-76
2024/03/12 11:50:32;;;;;;;24.10;19.27;;;;;;;;;;5076363;28;20460;-76
2024/03/12 11:53:10;;;;;;;21.97;19.70;;;;;;;;;;5071888;28;20500;-75
2024/03/12 11:55:55;;;;;;;20.53;18.37;;;;;;;;;;5071638;28;20472;-73
2024/03/12 11:58:24;;;;;;;20.23;15.07;;;;;;;;;;5074556;28;20479;-74
2024/03/12 12:00:51;;;;;;;19.60;15.60;;;;;;;;;;5077051;28;20476;-73
2024/03/12 12:03:19;;;;;;;21.70;16.23;;;;;;;;;;5074269;28;20509;-77
2024/03/12 12:05:45;;;;;;;21.10;15.63;;;;;;;;;;5078411;28;20785;-72
2024/03/12 12:08:14;;;;;;;27.40;17.70;;;;;;;;;;5078085;28;20480;-73
2024/03/12 12:10:41;;;;;;;24.63;16.10;;;;;;;;;;5067446;28;20465;-72
2024/03/12 12:13:14;;;;;;;19.53;14.53;;;;;;;;;;5064425;28;20460;-69
2024/03/12 12:15:40;;;;;;;23.83;15.80;;;;;;;;;;5077904;28;20869;-70
2024/03/12 12:18:07;;;;;;;23.27;15.70;;;;;;;;;;5076350;28;20511;-69
2024/03/12 12:20:35;;;;;;;22.30;16.00;;;;;;;;;;5077229;28;20560;-73
2024/03/12 12:23:03;;;;;;;20.40;13.20;;;;;;;;;;5068428;28;20458;-73
2024/03/12 12:25:30;;;;;;;21.17;14.10;;;;;;;;;;5077711;28;20480;-74
2024/03/12 12:27:57;;;;;;;16.97;13.80;;;;;;;;;;5077316;28;20451;-76
2024/03/12 12:30:23;;;;;;;21.47;16.60;;;;;;;;;;5077949;28;20472;-76
2024/03/12 12:32:51;;;;;;;19.60;13.80;;;;;;;;;;5076936;28;20542;-73
2024/03/12 12:35:20;;;;;;;15.63;12.60;;;;;;;;;;5076900;28;20484;-78
2024/03/12 12:37:48;;;;;;;19.70;13.97;;;;;;;;;;5072269;28;20870;-73
2024/03/12 12:40:17;;;;;;;15.57;11.27;;;;;;;;;;5073884;28;20986;-73
2024/03/12 12:42:43;;;;;;;19.27;11.90;;;;;;;;;;5079571;28;20557;-72
2024/03/12 12:45:10;;;;;;;13.33;10.10;;;;;;;;;;5074802;28;20887;-71
2024/03/12 12:47:37;;;;;;;13.37;10.70;;;;;;;;;;5073000;28;20471;-74
2024/03/12 12:50:04;;;;;;;12.83;9.70;;;;;;;;;;5078928;28;20490;-75
2024/03/12 12:52:30;;;;;;;12.13;10.17;;;;;;;;;;5080546;28;20471;-74
2024/03/12 12:54:59;;;;;;;11.07;9.47;;;;;;;;;;5080478;28;20591;-65
2024/03/12 12:57:27;;;;;;;11.63;10.13;;;;;;;;;;5076982;28;20951;-63
2024/03/12 12:59:55;;;;;;;13.03;10.70;;;;;;;;;;5079029;28;20547;-65
2024/03/12 13:02:23;;;;;;;14.77;11.70;;;;;;;;;;5084318;28;20918;-64
2024/03/12 13:04:55;;;;;;;13.97;10.03;;;;;;;;;;5074953;28;20479;-66
2024/03/12 13:07:29;;;;;;;12.27;10.47;;;;;;;;;;5069228;28;20464;-65
2024/03/12 13:09:59;;;;;;;14.03;10.53;;;;;;;;;;5076823;28;20469;-65
2024/03/12 13:12:28;;;;;;;14.67;11.80;;;;;;;;;;5081215;28;20447;-66
2024/03/12 13:14:54;;;;;;;13.77;12.10;;;;;;;;;;5081261;28;20493;-65
2024/03/12 13:17:21;;;;;;;17.43;12.50;;;;;;;;;;5081450;28;20487;-65
2024/03/12 13:19:48;;;;;;;16.40;12.30;;;;;;;;;;5080876;28;20531;-65
2024/03/12 13:22:14;;;;;;;18.43;13.37;;;;;;;;;;5081469;28;20454;-64
2024/03/12 13:24:43;;;;;;;19.17;13.80;;;;;;;;;;5089823;28;20487;-63
2024/03/12 13:27:09;;;;;;;18.63;12.70;;;;;;;;;;5080530;28;20456;-65
2024/03/12 13:29:37;;;;;;;13.70;10.47;;;;;;;;;;5075175;28;20992;-64
2024/03/12 13:32:05;;;;;;;16.07;11.70;;;;;;;;;;5081645;28;20432;-64
2024/03/12 13:34:31;;;;;;;17.33;12.40;;;;;;;;;;5079562;28;20495;-64
2024/03/12 13:36:58;;;;;;;16.07;12.30;;;;;;;;;;5080712;28;20455;-64
2024/03/12 13:39:24;;;;;;;18.03;12.17;;;;;;;;;;5079668;28;20482;-64
2024/03/12 13:41:51;;;;;;;17.17;13.50;;;;;;;;;;5080873;28;20459;-64
2024/03/12 13:44:17;;;;;;;17.10;11.60;;;;;;;;;;5079157;28;20456;-65
2024/03/12 13:46:45;;;;;;;19.63;12.90;;;;;;;;;;5080662;28;20479;-63
2024/03/12 13:49:12;;;;;;;26.53;13.90;;;;;;;;;;5079148;28;21038;-64
2024/03/12 13:51:39;;;;;;;22.53;13.57;;;;;;;;;;5080423;28;20446;-65
2024/03/12 13:54:08;;;;;;;21.67;15.10;;;;;;;;;;5077495;28;20524;-65
2024/03/12 13:56:36;;;;;;;22.50;14.63;;;;;;;;;;5078109;28;20476;-64
2024/03/12 13:59:02;;;;;;;23.53;14.80;;;;;;;;;;5079329;28;20486;-64
2024/03/12 14:01:29;;;;;;;24.33;14.63;;;;;;;;;;5078728;28;20448;-64
2024/03/12 14:03:57;;;;;;;25.13;15.90;;;;;;;;;;5077886;28;20476;-67
2024/03/12 14:06:24;;;;;;;24.80;15.67;;;;;;;;;;5080085;28;20970;-63
2024/03/12 14:08:51;;;;;;;20.77;13.77;;;;;;;;;;5078390;28;20486;-67
2024/03/12 14:11:17;;;;;;;22.47;14.80;;;;;;;;;;5075059;28;20455;-64
2024/03/12 14:13:44;;;;;;;23.50;15.10;;;;;;;;;;5075403;28;20459;-64
2024/03/12 14:16:11;;;;;;;19.07;14.10;;;;;;;;;;5079074;28;20548;-64
2024/03/12 14:18:37;;;;;;;20.93;14.50;;;;;;;;;;5077407;28;20432;-66
2024/03/12 14:21:05;;;;;;;21.63;14.73;;;;;;;;;;5076545;28;20527;-66
2024/03/12 14:23:32;;;;;;;21.47;15.07;;;;;;;;;;5079848;28;20440;-66
2024/03/12 14:25:58;;;;;;;18.77;14.77;;;;;;;;;;5077944;28;20444;-65